createdAt,value
2023-01-02T00:00:49.689Z,98.70
2023-01-02T00:03:54.331Z,98.70
2023-01-02T00:06:56.861Z,98.70
2023-01-02T00:09:58.974Z,98.70
2023-01-02T00:13:01.066Z,98.70
2023-01-02T00:16:03.319Z,98.70
2023-01-02T00:19:05.549Z,98.70
2023-01-02T00:22:07.743Z,98.70
2023-01-02T00:25:09.986Z,98.80
2023-01-02T00:28:12.174Z,98.70
2023-01-02T00:31:14.939Z,98.80
2023-01-02T00:34:17.137Z,98.70
2023-01-02T00:37:19.420Z,98.70
2023-01-02T00:40:21.632Z,98.70
2023-01-02T00:43:23.818Z,98.70
2023-01-02T00:46:26.166Z,98.70
2023-01-02T00:49:28.421Z,98.70
2023-01-02T00:52:31.625Z,98.70
2023-01-02T00:55:33.765Z,98.70
2023-01-02T00:58:36.283Z,98.70
2023-01-02T01:01:38.604Z,98.70
2023-01-02T01:04:40.820Z,98.70
2023-01-02T01:07:43.062Z,98.70
2023-01-02T01:10:45.190Z,98.70
2023-01-02T01:13:48.113Z,98.70
2023-01-02T01:16:50.438Z,98.70
2023-01-02T01:19:52.559Z,98.70
2023-01-02T01:22:54.739Z,98.70
2023-01-02T01:25:56.837Z,98.70
2023-01-02T01:28:59.179Z,98.70
2023-01-02T01:32:01.434Z,98.70
2023-01-02T01:35:03.752Z,98.70
2023-01-02T01:38:06.069Z,98.70
2023-01-02T01:41:09.533Z,98.70
2023-01-02T01:44:42.951Z,98.70
2023-01-02T01:47:53.648Z,98.70
2023-01-02T01:50:55.923Z,98.70
2023-01-02T01:54:09.512Z,98.70
2023-01-02T01:57:41.473Z,98.70
2023-01-02T02:00:44.395Z,98.70
2023-01-02T02:03:49.169Z,98.70
2023-01-02T02:06:51.681Z,98.70
2023-01-02T02:09:59.794Z,98.70
2023-01-02T02:13:01.951Z,98.70
2023-01-02T02:16:16.706Z,98.70
2023-01-02T02:19:34.079Z,98.70
2023-01-02T02:23:06.978Z,98.70
2023-01-02T02:26:41.290Z,98.70
2023-01-02T02:30:08.339Z,98.80
2023-01-02T02:33:58.718Z,98.70
2023-01-02T02:37:10.148Z,98.80
2023-01-02T02:40:43.127Z,98.70
2023-01-02T02:44:11.352Z,98.70
2023-01-02T02:47:27.464Z,98.70
2023-01-02T02:50:43.222Z,98.70
2023-01-02T02:53:53.408Z,98.70
2023-01-02T02:56:56.522Z,98.70
2023-01-02T02:59:59.071Z,98.70
2023-01-02T03:03:01.376Z,98.70
2023-01-02T03:06:03.604Z,98.70
2023-01-02T03:09:23.136Z,98.70
2023-01-02T03:12:43.999Z,98.70
2023-01-02T03:16:07.782Z,98.70
2023-01-02T03:19:26.558Z,98.70
2023-01-02T03:22:36.697Z,98.80
2023-01-02T03:25:40.465Z,98.70
2023-01-02T03:28:47.012Z,98.80
2023-01-02T03:31:52.600Z,98.70
2023-01-02T03:34:55.516Z,98.80
2023-01-02T03:37:59.543Z,98.70
2023-01-02T03:41:24.642Z,98.80
2023-01-02T03:44:35.039Z,98.70
2023-01-02T03:47:55.567Z,98.70
2023-01-02T03:51:01.160Z,98.80
2023-01-02T03:54:05.110Z,98.70
2023-01-02T03:57:18.239Z,98.70
2023-01-02T04:00:21.375Z,98.70
2023-01-02T04:03:54.163Z,98.80
2023-01-02T04:07:01.358Z,98.70
2023-01-02T04:10:05.349Z,98.70
2023-01-02T04:13:19.837Z,98.70
2023-01-02T04:16:25.524Z,98.80
2023-01-02T04:19:35.595Z,98.80
2023-01-02T04:22:50.357Z,98.80
2023-01-02T04:26:01.484Z,98.80
2023-01-02T04:29:03.872Z,98.80
2023-01-02T04:32:38.800Z,98.70
2023-01-02T04:35:40.968Z,98.80
2023-01-02T04:38:44.411Z,98.80
2023-01-02T04:41:46.609Z,98.70
2023-01-02T04:44:48.803Z,98.80
2023-01-02T04:47:51.629Z,98.80
2023-01-02T04:50:56.944Z,98.80
2023-01-02T04:53:59.067Z,98.80
2023-01-02T04:57:01.324Z,98.80
2023-01-02T05:00:05.551Z,98.80
2023-01-02T05:03:07.736Z,98.80
2023-01-02T05:06:10.730Z,99.10
2023-01-02T05:09:13.046Z,98.80
2023-01-02T05:12:15.202Z,98.80
2023-01-02T05:15:17.486Z,98.80
2023-01-02T05:18:19.698Z,98.80
2023-01-02T05:21:40.547Z,98.80
2023-01-02T05:24:42.684Z,98.80
2023-01-02T05:27:45.931Z,98.80
2023-01-02T05:30:49.790Z,98.80
2023-01-02T05:33:56.517Z,98.70
2023-01-02T05:36:58.643Z,98.70
2023-01-02T05:40:00.781Z,98.70
2023-01-02T05:43:02.919Z,98.70
2023-01-02T05:46:18.050Z,98.70
2023-01-02T05:49:20.209Z,98.70
2023-01-02T05:52:22.573Z,98.70
2023-01-02T05:55:24.890Z,98.70
2023-01-02T05:58:27.127Z,98.70
2023-01-02T06:01:30.710Z,98.70
2023-01-02T06:04:32.931Z,98.70
2023-01-02T06:07:35.062Z,98.80
2023-01-02T06:10:37.364Z,98.70
2023-01-02T06:13:40.340Z,98.70
2023-01-02T06:16:42.597Z,98.70
2023-01-02T06:19:48.824Z,98.70
2023-01-02T06:22:55.924Z,99.10
2023-01-02T06:26:19.449Z,98.80
2023-01-02T06:29:22.029Z,98.70
2023-01-02T06:32:24.249Z,98.70
2023-01-02T06:35:26.478Z,98.70
2023-01-02T06:38:29.102Z,98.80
2023-01-02T06:41:31.401Z,98.70
2023-01-02T06:44:33.543Z,98.70
2023-01-02T06:47:35.656Z,98.70
2023-01-02T06:50:37.864Z,98.80
2023-01-02T06:53:41.685Z,98.80
2023-01-02T06:56:43.827Z,98.70
2023-01-02T06:59:46.011Z,98.70
2023-01-02T07:02:48.406Z,98.70
2023-01-02T07:05:50.744Z,98.70
2023-01-02T07:08:52.916Z,98.80
2023-01-02T07:11:55.038Z,98.80
2023-01-02T07:14:57.146Z,98.70
2023-01-02T07:17:59.531Z,98.70
2023-01-02T07:21:01.772Z,98.70
2023-01-02T07:24:04.396Z,98.70
2023-01-02T07:27:06.542Z,98.70
2023-01-02T07:30:09.396Z,98.70
2023-01-02T07:33:11.602Z,98.70
2023-01-02T07:36:19.138Z,98.70
2023-01-02T07:39:22.865Z,98.80
2023-01-02T07:42:24.988Z,98.70
2023-01-02T07:45:27.219Z,98.70
2023-01-02T07:48:30.727Z,98.70
2023-01-02T07:51:33.432Z,98.80
2023-01-02T07:54:35.649Z,98.80
2023-01-02T07:57:37.727Z,98.80
2023-01-02T08:00:39.862Z,98.70
2023-01-02T08:03:42.143Z,98.70
2023-01-02T08:06:44.388Z,98.70
2023-01-02T08:09:46.596Z,98.70
2023-01-02T08:12:48.812Z,98.70
2023-01-02T08:15:50.974Z,98.70
2023-01-02T08:18:55.792Z,98.70
2023-01-02T08:21:58.068Z,98.70
2023-01-02T08:25:00.185Z,98.70
2023-01-02T08:28:02.465Z,98.80
2023-01-02T08:31:12.908Z,98.80
2023-01-02T08:34:15.999Z,98.80
2023-01-02T08:37:18.296Z,98.80
2023-01-02T08:40:20.381Z,98.80
2023-01-02T08:43:22.448Z,98.80
2023-01-02T08:46:24.635Z,98.70
2023-01-02T08:49:27.632Z,98.70
2023-01-02T08:52:29.992Z,98.70
2023-01-02T08:55:32.162Z,98.70
2023-01-02T08:58:34.304Z,98.70
2023-01-02T09:01:37.551Z,98.70
2023-01-02T09:04:39.918Z,98.70
2023-01-02T09:07:43.387Z,98.70
2023-01-02T09:10:45.560Z,98.80
2023-01-02T09:13:47.748Z,98.70
2023-01-02T09:16:51.584Z,98.70
2023-01-02T09:19:53.785Z,98.70
2023-01-02T09:22:55.939Z,98.70
2023-01-02T09:26:07.963Z,98.70
2023-01-02T09:29:11.669Z,98.80
2023-01-02T09:32:13.874Z,98.80
2023-01-02T09:35:16.307Z,98.80
2023-01-02T09:38:18.464Z,98.80
2023-01-02T09:41:39.404Z,98.90
2023-01-02T09:44:49.651Z,99.00
2023-01-02T09:47:53.585Z,99.00
2023-01-02T09:50:55.745Z,99.00
2023-01-02T09:53:58.117Z,99.00
2023-01-02T09:57:00.306Z,99.10
2023-01-02T10:00:05.707Z,99.20
2023-01-02T10:03:34.082Z,99.20
2023-01-02T10:06:50.248Z,99.20
2023-01-02T10:10:23.861Z,99.30
2023-01-02T10:14:18.137Z,99.30
2023-01-02T10:17:17.586Z,99.30
2023-01-02T10:20:30.142Z,99.20
2023-01-02T10:23:45.383Z,99.30
2023-01-02T10:26:53.820Z,99.30
2023-01-02T10:30:26.591Z,99.40
2023-01-02T10:33:52.244Z,99.30
2023-01-02T10:36:54.379Z,99.30
2023-01-02T10:39:56.704Z,99.30
2023-01-02T10:43:00.382Z,99.30
2023-01-02T10:46:03.834Z,99.40
2023-01-02T10:49:08.500Z,99.40
2023-01-02T10:52:32.365Z,99.40
2023-01-02T10:55:37.595Z,99.40
2023-01-02T10:58:46.213Z,99.40
2023-01-02T11:02:00.253Z,99.50
2023-01-02T11:05:04.732Z,99.50
2023-01-02T11:08:14.241Z,99.60
2023-01-02T11:11:18.585Z,99.80
2023-01-02T11:14:32.797Z,99.70
2023-01-02T11:17:42.948Z,99.80
2023-01-02T11:20:53.938Z,99.80
2023-01-02T11:24:14.463Z,99.80
2023-01-02T11:27:16.650Z,99.80
2023-01-02T11:30:48.414Z,99.80
2023-01-02T11:33:50.772Z,99.80
2023-01-02T11:37:22.052Z,99.80
2023-01-02T11:40:30.032Z,99.80
2023-01-02T11:43:50.607Z,99.80
2023-01-02T11:46:54.284Z,99.80
2023-01-02T11:49:57.206Z,99.70
2023-01-02T11:53:29.335Z,99.80
2023-01-02T11:56:35.960Z,99.80
2023-01-02T11:59:45.266Z,99.80
2023-01-02T12:02:51.006Z,99.80
2023-01-02T12:06:08.726Z,99.70
2023-01-02T12:09:12.783Z,99.80
2023-01-02T12:12:44.941Z,99.70
2023-01-02T12:15:52.846Z,99.70
2023-01-02T12:19:30.748Z,99.80
2023-01-02T12:22:56.680Z,99.70
2023-01-02T12:26:10.699Z,99.70
2023-01-02T12:29:48.273Z,99.70
2023-01-02T12:33:21.012Z,99.70
2023-01-02T12:36:49.818Z,99.70
2023-01-02T12:40:39.670Z,99.70
2023-01-02T12:44:19.007Z,99.80
2023-01-02T12:47:59.052Z,99.70
2023-01-02T12:51:13.776Z,99.80
2023-01-02T12:54:44.331Z,99.90
2023-01-02T12:57:59.081Z,99.90
2023-01-02T13:01:19.715Z,99.90
2023-01-02T13:04:33.110Z,99.90
2023-01-02T13:07:38.505Z,99.90
2023-01-02T13:10:41.244Z,99.90
2023-01-02T13:13:43.738Z,99.90
2023-01-02T13:16:53.848Z,99.90
2023-01-02T13:20:20.773Z,99.90
2023-01-02T13:23:43.416Z,99.90
2023-01-02T13:26:45.813Z,99.90
2023-01-02T13:29:48.004Z,99.90
2023-01-02T13:32:50.146Z,99.90
2023-01-02T13:35:52.619Z,99.80
2023-01-02T13:39:12.645Z,99.80
2023-01-02T13:42:46.575Z,99.90
2023-01-02T13:45:53.761Z,99.80
2023-01-02T13:49:02.272Z,99.80
2023-01-02T13:52:04.720Z,99.80
2023-01-02T13:55:21.403Z,99.80
2023-01-02T13:58:26.506Z,99.80
2023-01-02T14:01:38.065Z,99.80
2023-01-02T14:04:41.294Z,99.80
2023-01-02T14:07:45.473Z,99.80
2023-01-02T14:10:48.547Z,99.70
2023-01-02T14:13:53.248Z,99.70
2023-01-02T14:17:14.466Z,99.70
2023-01-02T14:20:24.069Z,99.70
2023-01-02T14:23:36.349Z,99.70
2023-01-02T14:26:41.624Z,99.70
2023-01-02T14:29:57.069Z,99.70
2023-01-02T14:33:00.644Z,99.70
2023-01-02T14:36:12.491Z,99.60
2023-01-02T14:39:26.842Z,99.60
2023-01-02T14:42:52.353Z,99.60
2023-01-02T14:46:19.692Z,99.60
2023-01-02T14:49:27.106Z,99.60
2023-01-02T14:52:35.184Z,99.60
2023-01-02T14:55:42.247Z,99.60
2023-01-02T14:58:47.200Z,99.60
2023-01-02T15:01:53.279Z,99.60
2023-01-02T15:05:03.557Z,99.50
2023-01-02T15:08:10.350Z,99.50
2023-01-02T15:11:38.101Z,99.50
2023-01-02T15:14:41.481Z,99.50
2023-01-02T15:17:47.807Z,99.50
2023-01-02T15:21:00.945Z,99.50
2023-01-02T15:24:04.931Z,99.50
2023-01-02T15:27:26.808Z,99.50
2023-01-02T15:30:38.685Z,99.40
2023-01-02T15:33:41.069Z,99.50
2023-01-02T15:36:44.215Z,99.40
2023-01-02T15:39:52.953Z,99.40
2023-01-02T15:43:17.463Z,99.40
2023-01-02T15:46:20.862Z,99.40
2023-01-02T15:49:23.828Z,99.40
2023-01-02T15:52:30.164Z,99.40
2023-01-02T15:55:37.656Z,99.40
2023-01-02T15:58:48.485Z,99.40
2023-01-02T16:01:50.695Z,99.40
2023-01-02T16:05:07.131Z,99.40
2023-01-02T16:08:16.416Z,99.40
2023-01-02T16:11:19.915Z,99.40
2023-01-02T16:14:47.668Z,99.40
2023-01-02T16:17:50.902Z,99.40
2023-01-02T16:20:59.404Z,99.40
2023-01-02T16:24:01.670Z,99.40
2023-01-02T16:27:04.888Z,99.70
2023-01-02T16:30:28.758Z,99.40
2023-01-02T16:33:31.213Z,99.70
2023-01-02T16:36:33.384Z,99.40
2023-01-02T16:39:46.817Z,99.30
2023-01-02T16:42:49.154Z,99.30
2023-01-02T16:45:52.317Z,99.40
2023-01-02T16:49:07.811Z,99.30
2023-01-02T16:52:10.412Z,99.30
2023-01-02T16:55:18.033Z,99.30
2023-01-02T16:58:21.349Z,99.30
2023-01-02T17:01:24.758Z,99.30
2023-01-02T17:04:26.979Z,99.30
2023-01-02T17:07:29.094Z,99.30
2023-01-02T17:10:31.280Z,99.30
2023-01-02T17:13:33.536Z,99.30
2023-01-02T17:16:35.706Z,99.30
2023-01-02T17:19:37.990Z,99.20
2023-01-02T17:22:41.117Z,99.20
2023-01-02T17:25:46.495Z,99.20
2023-01-02T17:28:48.798Z,99.20
2023-01-02T17:31:53.813Z,99.20
2023-01-02T17:34:56.011Z,99.20
2023-01-02T17:37:58.129Z,99.20
2023-01-02T17:41:00.506Z,99.20
2023-01-02T17:44:03.939Z,99.20
2023-01-02T17:47:38.873Z,99.20
2023-01-02T17:50:29.101Z,99.20
2023-01-02T17:53:31.314Z,99.20
2023-01-02T17:56:33.541Z,99.20
2023-01-02T17:59:35.881Z,99.20
2023-01-02T18:02:38.334Z,99.20
2023-01-02T18:05:40.686Z,99.20
2023-01-02T18:08:43.876Z,99.20
2023-01-02T18:11:46.169Z,99.20
2023-01-02T18:14:48.599Z,99.20
2023-01-02T18:17:52.623Z,99.20
2023-01-02T18:20:54.801Z,99.20
2023-01-02T18:23:59.432Z,99.20
2023-01-02T18:27:13.306Z,99.20
2023-01-02T18:30:24.319Z,99.20
2023-01-02T18:33:28.095Z,99.50
2023-01-02T18:36:31.761Z,99.20
2023-01-02T18:39:42.548Z,99.20
2023-01-02T18:42:47.607Z,99.10
2023-01-02T18:45:54.686Z,99.20
2023-01-02T18:48:57.037Z,99.10
2023-01-02T18:52:11.052Z,99.10
2023-01-02T18:55:13.170Z,99.40
2023-01-02T18:58:35.362Z,99.10
2023-01-02T19:01:44.972Z,99.10
2023-01-02T19:04:47.191Z,99.10
2023-01-02T19:07:49.394Z,99.10
2023-01-02T19:10:56.784Z,99.10
2023-01-02T19:13:59.344Z,99.10
2023-01-02T19:17:14.675Z,99.10
2023-01-02T19:20:17.461Z,99.10
2023-01-02T19:23:31.919Z,99.10
2023-01-02T19:26:36.583Z,99.10
2023-01-02T19:29:42.353Z,99.10
2023-01-02T19:32:44.515Z,99.10
2023-01-02T19:36:16.325Z,99.10
2023-01-02T19:39:25.455Z,99.10
2023-01-02T19:42:31.986Z,99.00
2023-01-02T19:45:35.312Z,99.00
2023-01-02T19:48:37.530Z,99.00
2023-01-02T19:51:39.702Z,99.00
2023-01-02T19:54:43.082Z,99.00
2023-01-02T19:57:46.154Z,99.00
2023-01-02T20:00:48.425Z,99.00
2023-01-02T20:03:50.691Z,99.00
2023-01-02T20:06:53.336Z,99.00
2023-01-02T20:09:55.492Z,99.00
2023-01-02T20:12:57.658Z,99.00
2023-01-02T20:15:59.780Z,98.90
2023-01-02T20:19:02.259Z,98.90
2023-01-02T20:22:04.824Z,99.00
2023-01-02T20:25:07.498Z,99.00
2023-01-02T20:28:09.694Z,99.00
2023-01-02T20:31:12.077Z,99.00
2023-01-02T20:34:14.746Z,99.00
2023-01-02T20:37:21.199Z,99.00
2023-01-02T20:40:23.429Z,99.00
2023-01-02T20:43:25.758Z,99.00
2023-01-02T20:46:29.023Z,99.00
2023-01-02T20:49:31.491Z,99.00
2023-01-02T20:52:33.807Z,99.00
2023-01-02T20:55:37.820Z,98.90
2023-01-02T20:58:40.019Z,98.90
2023-01-02T21:01:43.343Z,99.00
2023-01-02T21:04:45.626Z,99.00
2023-01-02T21:07:48.081Z,98.90
2023-01-02T21:10:50.389Z,99.00
2023-01-02T21:13:52.703Z,98.90
2023-01-02T21:16:54.878Z,98.90
2023-01-02T21:19:57.197Z,98.90
2023-01-02T21:22:59.543Z,99.00
2023-01-02T21:26:01.941Z,98.90
2023-01-02T21:29:04.455Z,99.10
2023-01-02T21:32:06.633Z,99.50
2023-01-02T21:35:09.064Z,99.80
2023-01-02T21:38:11.793Z,99.90
2023-01-02T21:41:32.721Z,99.90
2023-01-02T21:44:34.860Z,99.90
2023-01-02T21:47:37.113Z,99.90
2023-01-02T21:50:39.408Z,99.90
2023-01-02T21:53:41.671Z,99.90
2023-01-02T21:56:43.864Z,99.90
2023-01-02T21:59:46.004Z,99.90
2023-01-02T22:02:48.528Z,99.90
2023-01-02T22:05:50.842Z,99.90
2023-01-02T22:08:53.021Z,99.90
2023-01-02T22:11:55.413Z,99.90
2023-01-02T22:14:57.605Z,99.90
2023-01-02T22:18:01.842Z,99.90
2023-01-02T22:21:05.142Z,99.90
2023-01-02T22:24:07.856Z,99.90
2023-01-02T22:27:13.006Z,99.90
2023-01-02T22:30:29.348Z,99.90
2023-01-02T22:33:36.459Z,99.90
2023-01-02T22:36:38.751Z,99.90
2023-01-02T22:39:42.668Z,99.90
2023-01-02T22:43:03.848Z,99.90
2023-01-02T22:46:12.209Z,99.90
2023-01-02T22:49:22.122Z,99.90
2023-01-02T22:52:25.216Z,99.90
2023-01-02T22:55:27.487Z,99.90
2023-01-02T22:58:29.646Z,99.90
2023-01-02T23:01:38.918Z,99.90
2023-01-02T23:04:41.167Z,99.90
2023-01-02T23:07:43.803Z,99.90
2023-01-02T23:10:46.274Z,99.90
2023-01-02T23:13:54.721Z,99.90
2023-01-02T23:17:17.585Z,99.90
2023-01-02T23:20:19.942Z,99.90
2023-01-02T23:23:22.163Z,99.90
2023-01-02T23:26:27.780Z,99.90
2023-01-02T23:29:30.260Z,99.90
2023-01-02T23:32:32.474Z,99.90
2023-01-02T23:35:34.653Z,99.90
2023-01-02T23:38:36.919Z,99.90
2023-01-02T23:41:40.682Z,99.90
2023-01-02T23:44:44.806Z,99.90
2023-01-02T23:47:46.956Z,99.90
2023-01-02T23:51:03.992Z,99.90
2023-01-02T23:54:08.073Z,99.90
2023-01-02T23:57:10.255Z,99.90
